createdAt,value
2022-10-01T00:00:56.654Z,60.60
2022-10-01T00:03:24.677Z,55.60
2022-10-01T00:06:07.315Z,57.17
2022-10-01T00:08:34.052Z,58.20
2022-10-01T00:11:01.688Z,54.73
2022-10-01T00:13:30.365Z,54.10
2022-10-01T00:15:57.052Z,49.63
2022-10-01T00:18:23.480Z,53.53
2022-10-01T00:20:49.908Z,57.30
2022-10-01T00:23:16.600Z,66.87
2022-10-01T00:25:43.694Z,67.03
2022-10-01T00:28:12.066Z,70.37
2022-10-01T00:30:40.493Z,64.03
2022-10-01T00:33:07.149Z,58.47
2022-10-01T00:35:33.567Z,62.50
2022-10-01T00:38:00.182Z,52.47
2022-10-01T00:40:26.650Z,55.40
2022-10-01T00:42:53.055Z,54.10
2022-10-01T00:45:19.520Z,51.47
2022-10-01T00:47:52.621Z,57.37
2022-10-01T00:50:34.957Z,49.27
2022-10-01T00:53:06.425Z,46.77
2022-10-01T00:55:38.292Z,51.83
2022-10-01T00:58:05.180Z,51.47
2022-10-01T01:00:32.159Z,55.40
2022-10-01T01:02:58.901Z,52.07
2022-10-01T01:05:25.417Z,51.13
2022-10-01T01:07:53.266Z,48.80
2022-10-01T01:10:30.989Z,55.00
2022-10-01T01:13:24.073Z,51.57
2022-10-01T01:16:24.687Z,50.20
2022-10-01T01:19:04.157Z,48.03
2022-10-01T01:21:44.166Z,52.87
2022-10-01T01:24:29.021Z,51.73
2022-10-01T01:27:06.394Z,54.17
2022-10-01T01:29:46.553Z,56.70
2022-10-01T01:32:18.454Z,62.33
2022-10-01T01:34:46.987Z,60.00
2022-10-01T01:37:15.307Z,57.17
2022-10-01T01:39:45.240Z,63.80
2022-10-01T01:42:16.151Z,65.97
2022-10-01T01:44:45.762Z,58.13
2022-10-01T01:47:13.037Z,59.67
2022-10-01T01:49:39.956Z,64.23
2022-10-01T01:52:15.196Z,62.07
2022-10-01T01:54:49.738Z,63.23
2022-10-01T01:57:18.144Z,53.33
2022-10-01T01:59:45.668Z,67.80
2022-10-01T02:02:15.074Z,69.00
2022-10-01T02:04:48.859Z,66.87
2022-10-01T02:07:28.647Z,72.57
2022-10-01T02:09:59.973Z,66.63
2022-10-01T02:12:54.172Z,72.43
2022-10-01T02:15:48.746Z,72.03
2022-10-01T02:18:44.365Z,75.53
2022-10-01T02:21:21.810Z,81.00
2022-10-01T02:24:32.374Z,70.73
2022-10-01T02:27:00.511Z,72.47
2022-10-01T02:29:27.997Z,77.27
2022-10-01T02:31:55.716Z,80.13
2022-10-01T02:34:24.913Z,71.70
2022-10-01T02:36:51.909Z,72.47
2022-10-01T02:39:19.178Z,65.97
2022-10-01T02:41:48.204Z,75.13
2022-10-01T02:44:21.250Z,72.43
2022-10-01T02:47:07.866Z,62.43
2022-10-01T02:49:35.865Z,70.40
2022-10-01T02:52:31.437Z,69.37
2022-10-01T02:55:07.310Z,70.57
2022-10-01T02:57:33.990Z,71.23
2022-10-01T03:00:04.116Z,74.63
2022-10-01T03:02:31.736Z,66.73
2022-10-01T03:04:58.893Z,67.97
2022-10-01T03:07:26.312Z,73.23
2022-10-01T03:09:52.837Z,68.77
2022-10-01T03:12:19.315Z,70.60
2022-10-01T03:14:46.846Z,68.83
2022-10-01T03:17:13.873Z,60.90
2022-10-01T03:19:40.347Z,71.13
2022-10-01T03:22:07.532Z,71.13
2022-10-01T03:24:34.340Z,69.20
2022-10-01T03:27:01.339Z,65.13
2022-10-01T03:29:27.822Z,67.30
2022-10-01T03:31:54.840Z,58.20
2022-10-01T03:34:21.866Z,63.40
2022-10-01T03:36:48.818Z,71.57
2022-10-01T03:39:15.387Z,70.80
2022-10-01T03:41:41.893Z,64.43
2022-10-01T03:44:08.571Z,69.07
2022-10-01T03:46:34.978Z,66.10
2022-10-01T03:49:01.655Z,73.27
2022-10-01T03:51:28.675Z,74.30
2022-10-01T03:53:56.505Z,66.80
2022-10-01T03:56:23.477Z,71.23
2022-10-01T03:58:50.343Z,71.97
2022-10-01T04:01:17.276Z,79.17
2022-10-01T04:03:43.913Z,79.73
2022-10-01T04:06:11.354Z,74.13
2022-10-01T04:08:38.703Z,66.70
2022-10-01T04:11:06.357Z,69.57
2022-10-01T04:13:33.236Z,73.60
2022-10-01T04:15:59.759Z,77.97
2022-10-01T04:18:26.461Z,71.13
2022-10-01T04:20:52.855Z,67.60
2022-10-01T04:23:19.328Z,69.70
2022-10-01T04:25:45.888Z,78.43
2022-10-01T04:28:13.209Z,69.77
2022-10-01T04:30:41.443Z,72.97
2022-10-01T04:33:09.805Z,68.00
2022-10-01T04:35:37.024Z,72.77
2022-10-01T04:38:06.441Z,68.43
2022-10-01T04:40:35.360Z,70.10
2022-10-01T04:43:03.073Z,68.80
2022-10-01T04:45:29.616Z,68.70
2022-10-01T04:47:56.309Z,70.30
2022-10-01T04:50:24.848Z,66.57
2022-10-01T04:52:51.809Z,70.27
2022-10-01T04:55:20.050Z,64.57
2022-10-01T04:57:46.696Z,66.27
2022-10-01T05:00:15.935Z,80.93
2022-10-01T05:02:46.487Z,70.83
2022-10-01T05:05:13.212Z,70.37
2022-10-01T05:07:40.392Z,69.33
2022-10-01T05:10:12.674Z,69.67
2022-10-01T05:12:39.153Z,68.53
2022-10-01T05:15:06.146Z,81.83
2022-10-01T05:17:33.169Z,68.27
2022-10-01T05:19:59.905Z,82.03
2022-10-01T05:22:26.490Z,85.43
2022-10-01T05:24:53.514Z,86.27
2022-10-01T05:27:20.023Z,86.13
2022-10-01T05:29:46.889Z,88.50
2022-10-01T05:32:13.738Z,90.13
2022-10-01T05:34:40.506Z,80.37
2022-10-01T05:37:07.143Z,86.90
2022-10-01T05:39:33.923Z,79.33
2022-10-01T05:42:06.369Z,83.90
2022-10-01T05:44:38.189Z,80.37
2022-10-01T05:47:06.466Z,85.37
2022-10-01T05:49:33.424Z,85.93
2022-10-01T05:52:01.218Z,88.87
2022-10-01T05:54:29.581Z,93.77
2022-10-01T05:56:57.156Z,78.03
2022-10-01T05:59:28.446Z,89.10
2022-10-01T06:01:57.726Z,89.97
2022-10-01T06:04:24.320Z,86.60
2022-10-01T06:06:50.851Z,83.27
2022-10-01T06:09:17.427Z,92.63
2022-10-01T06:11:43.923Z,88.00
2022-10-01T06:14:10.638Z,97.20
2022-10-01T06:16:37.295Z,87.97
2022-10-01T06:19:04.411Z,87.57
2022-10-01T06:21:31.851Z,78.43
2022-10-01T06:23:58.804Z,77.97
2022-10-01T06:26:25.355Z,77.73
2022-10-01T06:28:52.825Z,74.10
2022-10-01T06:31:19.836Z,89.00
2022-10-01T06:33:46.508Z,74.33
2022-10-01T06:36:13.091Z,75.43
2022-10-01T06:38:39.684Z,68.27
2022-10-01T06:41:06.235Z,69.23
2022-10-01T06:43:33.715Z,70.67
2022-10-01T06:46:05.140Z,60.27
2022-10-01T06:48:32.445Z,61.70
2022-10-01T06:50:59.544Z,63.50
2022-10-01T06:53:27.598Z,57.33
2022-10-01T06:55:54.481Z,51.07
2022-10-01T06:58:23.077Z,60.63
2022-10-01T07:00:50.310Z,55.07
2022-10-01T07:03:21.457Z,51.47
2022-10-01T07:05:50.375Z,62.60
2022-10-01T07:08:17.899Z,44.60
2022-10-01T07:10:45.753Z,46.77
2022-10-01T07:13:16.151Z,42.03
2022-10-01T07:15:42.939Z,41.63
2022-10-01T07:18:09.859Z,41.50
2022-10-01T07:20:40.124Z,41.73
2022-10-01T07:23:14.541Z,35.80
2022-10-01T07:25:42.052Z,34.07
2022-10-01T07:28:16.303Z,35.20
2022-10-01T07:31:07.562Z,28.60
2022-10-01T07:33:34.207Z,33.50
2022-10-01T07:36:03.253Z,27.63
2022-10-01T07:38:30.085Z,26.27
2022-10-01T07:40:59.125Z,26.80
2022-10-01T07:43:25.852Z,23.20
2022-10-01T07:45:55.286Z,25.47
2022-10-01T07:48:22.075Z,26.03
2022-10-01T07:50:49.658Z,24.03
2022-10-01T07:53:17.146Z,23.23
2022-10-01T07:55:44.813Z,28.30
2022-10-01T07:58:12.044Z,23.77
2022-10-01T08:00:39.271Z,25.55
2022-10-01T08:03:06.053Z,27.77
2022-10-01T08:05:34.753Z,25.57
2022-10-01T08:08:06.173Z,23.83
2022-10-01T08:10:36.937Z,24.23
2022-10-01T08:13:14.549Z,24.97
2022-10-01T08:15:46.254Z,25.73
2022-10-01T08:18:13.215Z,23.80
2022-10-01T08:20:40.106Z,21.17
2022-10-01T08:23:11.615Z,23.57
2022-10-01T08:25:40.477Z,21.43
2022-10-01T08:28:09.010Z,23.07
2022-10-01T08:30:37.862Z,26.53
2022-10-01T08:33:05.657Z,22.30
2022-10-01T08:35:32.269Z,24.83
2022-10-01T08:38:04.303Z,26.50
2022-10-01T08:40:37.166Z,24.23
2022-10-01T08:43:07.540Z,26.57
2022-10-01T08:45:46.844Z,26.70
2022-10-01T08:48:56.855Z,27.53
2022-10-01T08:51:33.011Z,25.70
2022-10-01T08:54:32.394Z,27.30
2022-10-01T08:57:02.381Z,31.07
2022-10-01T08:59:35.520Z,29.60
2022-10-01T09:02:04.641Z,29.50
2022-10-01T09:04:31.344Z,16.60
2022-10-01T09:07:23.772Z,24.37
2022-10-01T09:10:00.721Z,27.47
2022-10-01T09:12:54.064Z,26.37
2022-10-01T09:15:43.364Z,28.27
2022-10-01T09:18:25.862Z,20.83
2022-10-01T09:20:55.170Z,23.80
2022-10-01T09:23:32.408Z,14.17
2022-10-01T09:25:59.688Z,19.90
2022-10-01T09:28:33.990Z,19.63
2022-10-01T09:31:12.442Z,22.17
2022-10-01T09:33:42.626Z,25.57
2022-10-01T09:36:21.963Z,23.67
2022-10-01T09:38:58.050Z,23.60
2022-10-01T09:41:24.836Z,24.17
2022-10-01T09:43:51.453Z,24.67
2022-10-01T09:46:18.223Z,23.73
2022-10-01T09:49:03.255Z,26.53
2022-10-01T09:51:50.482Z,23.40
2022-10-01T09:54:22.491Z,22.20
2022-10-01T09:56:55.462Z,23.17
2022-10-01T09:59:24.843Z,25.60
2022-10-01T10:01:59.128Z,24.40
2022-10-01T10:04:26.198Z,28.20
2022-10-01T10:07:00.301Z,27.83
2022-10-01T10:09:29.858Z,23.77
2022-10-01T10:12:00.820Z,27.87
2022-10-01T10:14:31.400Z,24.77
2022-10-01T10:16:59.168Z,23.87
2022-10-01T10:19:28.562Z,22.27
2022-10-01T10:22:00.774Z,21.07
2022-10-01T10:24:35.059Z,22.03
2022-10-01T10:27:05.258Z,18.50
2022-10-01T10:29:33.868Z,19.13
2022-10-01T10:32:10.581Z,23.63
2022-10-01T10:34:41.257Z,21.83
2022-10-01T10:37:18.932Z,25.67
2022-10-01T10:39:48.429Z,25.07
2022-10-01T10:42:15.824Z,25.43
2022-10-01T10:44:44.214Z,23.77
2022-10-01T10:47:14.724Z,22.20
2022-10-01T10:49:44.020Z,23.27
2022-10-01T10:52:25.327Z,23.43
2022-10-01T10:54:53.818Z,25.40
2022-10-01T10:57:23.179Z,23.90
2022-10-01T10:59:56.473Z,23.10
2022-10-01T11:02:26.848Z,23.93
2022-10-01T11:04:53.946Z,22.50
2022-10-01T11:07:22.023Z,18.83
2022-10-01T11:10:13.430Z,19.43
2022-10-01T11:13:06.771Z,22.33
2022-10-01T11:15:39.236Z,19.00
2022-10-01T11:18:12.372Z,18.07
2022-10-01T11:20:44.026Z,16.37
2022-10-01T11:23:27.664Z,16.10
2022-10-01T11:26:16.640Z,15.97
2022-10-01T11:28:54.900Z,18.30
2022-10-01T11:31:48.779Z,19.40
2022-10-01T11:34:37.811Z,16.97
2022-10-01T11:37:41.752Z,17.87
2022-10-01T11:40:49.393Z,20.93
2022-10-01T11:43:29.749Z,18.07
2022-10-01T11:46:00.454Z,20.67
2022-10-01T11:48:33.424Z,17.40
2022-10-01T11:51:07.875Z,15.93
2022-10-01T11:53:39.882Z,18.27
2022-10-01T11:56:36.484Z,24.87
2022-10-01T11:59:09.956Z,16.03
2022-10-01T12:01:48.124Z,15.57
2022-10-01T12:04:22.595Z,18.30
2022-10-01T12:06:53.272Z,15.50
2022-10-01T12:09:22.503Z,16.43
2022-10-01T12:12:01.460Z,16.43
2022-10-01T12:14:33.086Z,14.90
2022-10-01T12:17:09.878Z,14.63
2022-10-01T12:19:40.029Z,13.53
2022-10-01T12:22:21.273Z,16.37
2022-10-01T12:24:50.346Z,12.67
2022-10-01T12:27:29.288Z,13.13
2022-10-01T12:30:21.689Z,14.90
2022-10-01T12:33:05.237Z,16.50
2022-10-01T12:35:41.432Z,18.77
2022-10-01T12:38:49.888Z,19.00
2022-10-01T12:41:44.489Z,14.50
2022-10-01T12:44:24.271Z,15.93
2022-10-01T12:47:12.932Z,16.73
2022-10-01T12:50:03.734Z,16.67
2022-10-01T12:52:48.889Z,16.43
2022-10-01T12:55:44.598Z,12.57
2022-10-01T12:58:38.507Z,11.00
2022-10-01T13:01:18.874Z,12.00
2022-10-01T13:04:11.049Z,12.27
2022-10-01T13:06:55.937Z,10.20
2022-10-01T13:09:35.271Z,8.67
2022-10-01T13:12:13.910Z,9.97
2022-10-01T13:14:44.350Z,7.23
2022-10-01T13:17:30.379Z,9.20
2022-10-01T13:20:13.341Z,7.87
2022-10-01T13:22:58.204Z,8.87
2022-10-01T13:25:33.861Z,8.70
2022-10-01T13:28:11.859Z,9.40
2022-10-01T13:31:00.136Z,7.73
2022-10-01T13:33:29.695Z,8.60
2022-10-01T13:36:01.388Z,8.27
2022-10-01T13:38:38.711Z,7.10
2022-10-01T13:41:15.832Z,8.80
2022-10-01T13:43:47.983Z,9.07
2022-10-01T13:46:14.525Z,9.87
2022-10-01T13:48:48.353Z,9.83
2022-10-01T13:51:15.696Z,8.10
2022-10-01T13:53:42.043Z,10.93
2022-10-01T13:56:12.241Z,12.33
2022-10-01T13:58:43.450Z,10.77
2022-10-01T14:01:18.887Z,9.53
2022-10-01T14:04:17.059Z,12.23
2022-10-01T14:07:17.395Z,12.90
2022-10-01T14:09:50.072Z,9.97
2022-10-01T14:12:50.892Z,10.70
2022-10-01T14:15:38.568Z,11.43
2022-10-01T14:18:16.121Z,10.40
2022-10-01T14:20:58.918Z,11.73
2022-10-01T14:23:36.121Z,10.67
2022-10-01T14:26:27.433Z,9.87
2022-10-01T14:29:05.121Z,12.37
2022-10-01T14:31:56.838Z,10.50
2022-10-01T14:34:41.456Z,10.50
2022-10-01T14:37:16.829Z,11.93
2022-10-01T14:39:43.825Z,9.90
2022-10-01T14:42:16.983Z,12.20
2022-10-01T14:44:46.263Z,8.67
2022-10-01T14:47:19.986Z,10.30
2022-10-01T14:49:47.458Z,11.17
2022-10-01T14:52:19.924Z,10.07
2022-10-01T14:54:59.263Z,14.57
2022-10-01T14:57:40.006Z,13.50
2022-10-01T15:00:16.029Z,14.47
2022-10-01T15:02:49.257Z,16.63
2022-10-01T15:05:35.395Z,15.00
2022-10-01T15:08:20.580Z,15.20
2022-10-01T15:10:53.092Z,18.83
2022-10-01T15:13:27.106Z,18.53
2022-10-01T15:15:54.862Z,17.70
2022-10-01T15:18:22.342Z,18.97
2022-10-01T15:20:58.133Z,29.43
2022-10-01T15:23:25.477Z,23.23
2022-10-01T15:25:53.751Z,23.83
2022-10-01T15:28:28.045Z,21.57
2022-10-01T15:30:54.842Z,26.00
2022-10-01T15:33:27.796Z,23.83
2022-10-01T15:35:57.030Z,21.33
2022-10-01T15:38:23.945Z,20.17
2022-10-01T15:41:04.994Z,22.70
2022-10-01T15:43:42.193Z,24.83
2022-10-01T15:46:11.468Z,22.40
2022-10-01T15:48:38.264Z,22.50
2022-10-01T15:51:16.141Z,24.83
2022-10-01T15:53:43.013Z,23.97
2022-10-01T15:56:12.198Z,20.83
2022-10-01T15:58:45.185Z,18.90
2022-10-01T16:01:22.192Z,22.30
2022-10-01T16:04:08.417Z,22.23
2022-10-01T16:06:41.041Z,22.10
2022-10-01T16:09:19.052Z,23.43
2022-10-01T16:11:57.434Z,19.93
2022-10-01T16:14:30.776Z,22.37
2022-10-01T16:17:17.671Z,23.90
2022-10-01T16:19:45.254Z,23.47
2022-10-01T16:22:18.764Z,23.77
2022-10-01T16:24:52.320Z,26.30
2022-10-01T16:27:21.743Z,25.50
2022-10-01T16:30:05.096Z,22.40
2022-10-01T16:32:32.239Z,22.20
2022-10-01T16:35:18.300Z,25.63
2022-10-01T16:37:45.666Z,26.97
2022-10-01T16:40:16.244Z,29.20
2022-10-01T16:42:43.848Z,26.97
2022-10-01T16:45:24.726Z,24.87
2022-10-01T16:47:52.722Z,22.77
2022-10-01T16:50:21.556Z,24.80
2022-10-01T16:52:48.278Z,24.27
2022-10-01T16:55:23.282Z,25.23
2022-10-01T16:57:50.274Z,25.53
2022-10-01T17:00:18.489Z,29.97
2022-10-01T17:02:45.304Z,23.37
2022-10-01T17:05:30.270Z,25.77
2022-10-01T17:08:04.511Z,25.73
2022-10-01T17:10:35.977Z,28.53
2022-10-01T17:13:04.610Z,26.67
2022-10-01T17:15:31.221Z,29.00
2022-10-01T17:17:58.970Z,24.93
2022-10-01T17:20:28.407Z,26.00
2022-10-01T17:22:55.709Z,25.07
2022-10-01T17:25:25.365Z,28.43
2022-10-01T17:27:52.135Z,27.17
2022-10-01T17:30:19.321Z,23.37
2022-10-01T17:32:46.713Z,23.33
2022-10-01T17:35:14.616Z,24.53
2022-10-01T17:37:41.758Z,23.13
2022-10-01T17:40:09.129Z,21.70
2022-10-01T17:42:36.007Z,27.20
2022-10-01T17:45:07.955Z,26.40
2022-10-01T17:47:34.598Z,25.20
2022-10-01T17:50:01.160Z,30.50
2022-10-01T17:52:27.868Z,27.33
2022-10-01T17:54:54.758Z,28.73
2022-10-01T17:57:21.553Z,29.43
2022-10-01T17:59:48.400Z,27.17
2022-10-01T18:02:39.728Z,29.17
2022-10-01T18:05:05.131Z,32.00
2022-10-01T18:07:31.856Z,30.80
2022-10-01T18:09:58.957Z,34.07
2022-10-01T18:12:25.613Z,28.50
2022-10-01T18:14:52.499Z,31.47
2022-10-01T18:17:19.156Z,31.13
2022-10-01T18:19:53.226Z,34.10
2022-10-01T18:22:20.611Z,32.07
2022-10-01T18:24:47.647Z,37.97
2022-10-01T18:27:14.221Z,33.53
2022-10-01T18:29:40.928Z,33.80
2022-10-01T18:32:24.260Z,31.50
2022-10-01T18:35:03.285Z,33.13
2022-10-01T18:37:40.001Z,32.97
2022-10-01T18:40:13.380Z,35.53
2022-10-01T18:43:00.101Z,34.47
2022-10-01T18:45:43.191Z,39.67
2022-10-01T18:48:40.456Z,37.80
2022-10-01T18:51:51.136Z,40.60
2022-10-01T18:54:37.608Z,39.20
2022-10-01T18:57:39.715Z,39.87
2022-10-01T19:00:23.546Z,42.40
2022-10-01T19:03:19.358Z,40.87
2022-10-01T19:06:10.741Z,38.17
2022-10-01T19:09:04.814Z,43.87
2022-10-01T19:11:51.512Z,44.73
2022-10-01T19:14:31.044Z,44.33
2022-10-01T19:17:34.625Z,43.57
2022-10-01T19:20:06.821Z,45.03
2022-10-01T19:22:53.069Z,42.17
2022-10-01T19:25:27.784Z,43.33
2022-10-01T19:28:10.797Z,45.87
2022-10-01T19:31:15.224Z,49.03
2022-10-01T19:33:46.745Z,41.43
2022-10-01T19:36:33.649Z,44.83
2022-10-01T19:39:04.536Z,46.10
2022-10-01T19:41:47.604Z,44.63
2022-10-01T19:44:19.346Z,43.57
2022-10-01T19:46:47.483Z,45.97
2022-10-01T19:49:40.348Z,43.77
2022-10-01T19:52:18.188Z,42.50
2022-10-01T19:54:52.720Z,42.57
2022-10-01T19:57:24.282Z,43.70
2022-10-01T19:59:52.740Z,44.90
2022-10-01T20:02:33.102Z,45.87
2022-10-01T20:05:06.050Z,43.27
2022-10-01T20:07:47.513Z,44.30
2022-10-01T20:10:25.557Z,48.20
2022-10-01T20:13:10.124Z,44.30
2022-10-01T20:15:58.397Z,45.83
2022-10-01T20:18:58.822Z,44.80
2022-10-01T20:21:46.624Z,46.83
2022-10-01T20:24:34.905Z,46.83
2022-10-01T20:27:15.155Z,43.50
2022-10-01T20:30:06.673Z,49.67
2022-10-01T20:32:39.870Z,50.70
2022-10-01T20:35:30.184Z,48.67
2022-10-01T20:38:15.245Z,47.67
2022-10-01T20:40:49.723Z,46.47
2022-10-01T20:43:22.479Z,48.00
2022-10-01T20:45:51.934Z,48.20
2022-10-01T20:48:35.515Z,47.47
2022-10-01T20:51:10.656Z,50.73
2022-10-01T20:53:43.375Z,45.93
2022-10-01T20:56:15.489Z,49.43
2022-10-01T20:58:47.451Z,57.97
2022-10-01T21:01:17.903Z,57.63
2022-10-01T21:03:46.970Z,50.33
2022-10-01T21:06:17.212Z,53.53
2022-10-01T21:08:53.615Z,50.63
2022-10-01T21:11:30.668Z,50.63
2022-10-01T21:14:07.031Z,60.57
2022-10-01T21:16:46.210Z,55.70
2022-10-01T21:19:22.437Z,56.97
2022-10-01T21:22:07.652Z,66.90
2022-10-01T21:24:52.072Z,64.60
2022-10-01T21:27:58.102Z,61.43
2022-10-01T21:30:24.797Z,53.07
2022-10-01T21:33:04.904Z,51.87
2022-10-01T21:35:44.483Z,53.93
2022-10-01T21:38:19.315Z,54.07
2022-10-01T21:41:01.677Z,48.07
2022-10-01T21:43:56.379Z,54.03
2022-10-01T21:46:42.343Z,48.30
2022-10-01T21:49:31.745Z,50.07
2022-10-01T21:52:21.727Z,48.90
2022-10-01T21:54:59.017Z,50.60
2022-10-01T21:57:35.942Z,51.13
2022-10-01T22:00:16.515Z,49.70
2022-10-01T22:03:00.667Z,49.40
2022-10-01T22:05:34.372Z,52.20
2022-10-01T22:08:20.652Z,45.60
2022-10-01T22:10:50.681Z,43.23
2022-10-01T22:13:27.519Z,43.60
2022-10-01T22:15:56.980Z,49.30
2022-10-01T22:18:36.068Z,43.47
2022-10-01T22:21:07.502Z,45.07
2022-10-01T22:23:37.483Z,43.00
2022-10-01T22:26:11.777Z,40.57
2022-10-01T22:28:39.728Z,36.13
2022-10-01T22:31:11.371Z,38.90
2022-10-01T22:33:42.310Z,33.77
2022-10-01T22:36:15.786Z,38.00
2022-10-01T22:38:46.044Z,32.77
2022-10-01T22:41:17.681Z,25.23
2022-10-01T22:43:45.706Z,26.17
2022-10-01T22:46:40.122Z,24.77
2022-10-01T22:49:36.075Z,28.13
2022-10-01T22:52:10.025Z,21.63
2022-10-01T22:54:56.841Z,24.57
2022-10-01T22:58:06.291Z,24.93
2022-10-01T23:00:51.257Z,27.43
2022-10-01T23:03:55.707Z,26.37
2022-10-01T23:06:24.969Z,26.53
2022-10-01T23:09:11.643Z,25.43
2022-10-01T23:12:03.386Z,24.70
2022-10-01T23:14:32.619Z,24.27
2022-10-01T23:17:07.185Z,28.50
2022-10-01T23:20:14.904Z,29.80
2022-10-01T23:22:44.889Z,27.27
2022-10-01T23:25:56.122Z,29.37
2022-10-01T23:28:48.848Z,31.43
2022-10-01T23:31:33.469Z,26.57
2022-10-01T23:34:37.606Z,32.00
2022-10-01T23:37:34.874Z,27.37
2022-10-01T23:40:06.939Z,28.53
2022-10-01T23:43:04.383Z,26.90
2022-10-01T23:45:36.269Z,24.87
2022-10-01T23:48:13.810Z,21.87
2022-10-01T23:50:45.829Z,22.90
2022-10-01T23:53:20.328Z,21.53
2022-10-01T23:56:11.191Z,17.50
2022-10-01T23:58:45.464Z,21.23
